Campanya Meteocatpedra
Centenari de l'SMC: 100 anys mirant el cel

Dades de l'estació automàtica Vilanova de Meià

?
?

Resum diari

23:00 TU
Dades diàries de l'estació meteorològica
Temperatura mitjana 16.2 °C
Temperatura màxima 23.2 °C 14:33 TU
Temperatura mínima 10.1 °C 6:41 TU
Humitat relativa mitjana 63%
Precipitació acumulada 0.0 mm
Ratxa màxima del vent (10 m) 23.4 km/h - 176º 14:59 TU
Pressió atmosfèrica mitjana 1018.5 hPa

El tram horari està expressat en Temps Universal (TU). Cal sumar una hora en horari d'hivern i dues en horari d'estiu per passar a l'hora oficial.

Vilanova de Meià

Metadades estació meteorològica
Municipi Vilanova de Meià
Comarca Noguera
Altitud 594 m
Data alta 01.04.1996
Estat actual Operativa
Dades de període
Període
TU
TM
°C
TX
°C
TN
°C
HRM
%
PPT
mm
VVM (10 m)
km/h
DVM (10 m)
graus
VVX (10 m)
km/h
PM
hPa
00:00 - 00:30 12.7 12.9 12.4 76 0.0 1.8 22 4.3 1019.7
00:30 - 01:00 12.7 12.8 12.5 76 0.0 1.1 26 3.2 1019.4
01:00 - 01:30 12.5 12.6 12.4 77 0.0 1.8 24 4.0 1019.2
01:30 - 02:00 12.3 12.6 12.0 78 0.0 1.1 29 4.0 1019.5
02:00 - 02:30 12.0 12.2 11.9 79 0.0 1.8 22 4.7 1019.4
02:30 - 03:00 11.9 12.3 11.3 80 0.0 1.4 45 4.7 1019.2
03:00 - 03:30 11.7 12.0 11.3 82 0.0 1.1 22 2.5 1019.3
03:30 - 04:00 11.7 11.8 11.6 83 0.0 0.7 15 3.2 1019.3
04:00 - 04:30 11.6 11.8 11.4 84 0.0 0.4 31 1.8 1019.5
04:30 - 05:00 11.8 11.8 11.4 84 0.0 0.4 31 2.2 1019.5
05:00 - 05:30 10.8 11.2 10.5 88 0.0 1.1 32 2.5 1019.8
05:30 - 06:00 10.5 10.6 10.4 88 0.0 1.1 25 2.9 1020.0
06:00 - 06:30 10.5 10.7 10.4 87 0.0 1.1 25 3.2 1020.1
06:30 - 07:00 10.5 11.0 10.1 89 0.0 0.7 44 4.3 1020.3
07:00 - 07:30 11.7 12.7 10.9 86 0.0 0.7 57 3.2 1020.2
07:30 - 08:00 14.1 15.3 12.8 77 0.0 1.1 151 5.4 1019.6
08:00 - 08:30 15.6 16.4 15.0 71 0.0 3.6 191 8.6 1019.3
08:30 - 09:00 16.5 17.2 15.6 68 0.0 3.6 209 11.5 1019.2
09:00 - 09:30 17.6 18.1 16.8 64 0.0 5.8 204 15.5 1018.8
09:30 - 10:00 18.5 19.6 17.3 62 0.0 4.7 187 11.9 1018.6
10:00 - 10:30 19.6 20.6 19.2 58 0.0 5.8 193 16.6 1018.0
10:30 - 11:00 20.3 20.8 19.8 55 0.0 7.2 185 16.2 1017.6
11:00 - 11:30 20.7 21.2 20.0 53 0.0 7.2 182 16.9 1017.3
11:30 - 12:00 21.2 21.7 20.5 52 0.0 7.2 173 20.2 1017.0
12:00 - 12:30 19.7 20.5 19.4 55 0.0 7.6 177 18.0 1017.0
12:30 - 13:00 19.8 20.7 19.4 53 0.0 4.7 162 12.6 1016.7
13:00 - 13:30 21.7 22.5 21.0 45 0.0 7.6 202 21.6 1015.8
13:30 - 14:00 21.9 22.4 21.5 45 0.0 5.4 227 16.2 1015.6
14:00 - 14:30 21.5 22.6 21.0 45 0.0 4.0 171 10.8 1015.2
14:30 - 15:00 22.2 23.2 21.8 42 0.0 8.6 218 23.4 1014.9
15:00 - 15:30 22.4 23.0 22.0 39 0.0 8.6 213 21.6 1014.9
15:30 - 16:00 21.9 22.5 21.4 41 0.0 4.0 25 18.0 1015.0
16:00 - 16:30 20.9 21.8 20.2 44 0.0 4.7 43 10.8 1015.4
16:30 - 17:00 20.0 20.3 19.1 46 0.0 4.7 29 11.9 1015.9
17:00 - 17:30 18.7 19.1 18.3 49 0.0 5.0 40 14.8 1016.9
17:30 - 18:00 18.1 18.3 17.9 50 0.0 3.2 36 9.7 1017.5
18:00 - 18:30 17.6 17.9 17.5 51 0.0 2.5 39 7.2 1017.8
18:30 - 19:00 17.2 17.5 16.9 52 0.0 3.2 39 9.4 1018.3
19:00 - 19:30 16.8 16.9 16.7 55 0.0 2.5 44 10.8 1019.0
19:30 - 20:00 16.7 16.8 16.7 53 0.0 2.9 36 7.9 1019.4
20:00 - 20:30 16.9 17.0 16.8 50 0.0 4.3 31 14.8 1019.7
20:30 - 21:00 17.0 17.0 16.9 48 0.0 4.7 33 16.6 1019.9
21:00 - 21:30 16.5 16.9 16.0 49 0.0 5.0 88 13.3 1020.4
21:30 - 22:00 15.8 16.0 15.7 51 0.0 7.6 106 16.6 1020.6
22:00 - 22:30 15.6 16.0 14.8 51 0.0 4.7 86 14.0 1020.8
22:30 - 23:00 13.5 14.7 12.2 61 0.0 0.4 56 2.5 1021.3
23:00 - 23:30 12.0 12.1 11.8 67 0.0 1.1 20 2.9 1021.9

Les dades en taronja només han passat un control de qualitat automàtic. Resta pendent la seva validació definitiva.